Terminal Aerodrome Forecast
Issued by NWS

Home | Current Version | Previous Version | Text Only | Print | Product List | Glossary On
Versions: 1 2 3 4 5 6 7 8 9 10 11 12 13
153
FTUS43 KGRR 141140
TAFLAN
TAF
KLAN 141140Z 1412/1512 14005KT P6SM SCT250
     FM141800 14010KT P6SM BKN120
     FM150300 13010KT 4SM -SN OVC025
     FM150700 13010KT 2SM -SN OVC015=

USA.gov is the U.S. government's official web portal to all federal, state and local government web resources and services.